Track Толстопятов В 10

Time Latitude Longitude Accuracy (66% radius in meters) Altitude (meters) Speed (km/hour) Bearing (degrees) Battery (%) GPS flag
09:51:12 55.602229 37.899137 10 180 0 134.42840576172 88 1 delete
09:49:38 55.602128 37.899081 10 195 0 101.58172607422 88 1 delete
09:28:21 55.602120 37.899242 5 168 1.1365565061569 323.82586669922 89 1 delete
09:28:13 55.602079 37.899394 5 168 1.1500916481018 283.69274902344 89 1 delete
09:28:08 55.602024 37.899528 5 166 0.87041836977005 298.12979125977 89 1 delete
09:28:05 55.601998 37.899721 10 167 0.61669546365738 268.72662353516 89 1 delete
09:27:56 55.601982 37.899886 5 163 0.4358893930912 319.79751586914 89 1 delete
09:25:35 55.601931 37.900018 10 168 0.31069791316986 155.06425476074 89 1 delete
09:25:19 55.601983 37.899884 10 172 0.53448665142059 120.24322509766 89 1 delete
09:25:08 55.602019 37.899733 10 174 0.47430303692818 127.65291595459 89 1 delete
09:24:05 55.602042 37.899579 5 169 0.68160963058472 95.146759033203 89 1 delete
09:23:58 55.602053 37.899408 10 169 0.40568423271179 92.459403991699 89 1 delete
09:23:34 55.602059 37.899249 10 161 0.29629701375961 195.02908325195 89 1 delete
09:22:49 55.602109 37.899109 5 178 0.59461498260498 91.041687011719 89 1 delete
09:22:03 55.602159 37.898969 10 181 0 130.4948425293 89 1 delete
09:21:43 55.602168 37.898810 10 175 0.68053448200226 96.453918457031 89 1 delete
09:21:34 55.602240 37.898707 10 171 1.8308809995651 144.53677368164 89 1 delete
09:21:31 55.602311 37.898575 10 163 2.1903257369995 69.167037963867 89 1 delete
09:21:28 55.602372 37.898425 10 180 2.4916987419128 121.46576690674 89 1 delete
09:21:26 55.602437 37.898296 10 181 2.4575409889221 147.3766784668 89 1 delete
09:21:24 55.602503 37.898179 10 181 2.4031352996826 127.95134735107 89 1 delete
09:21:21 55.602556 37.897974 10 182 2.3147475719452 93.555908203125 89 1 delete
09:21:17 55.602593 37.897753 10 180 2.7513091564178 119.12910461426 89 1 delete
09:21:14 55.602644 37.897555 10 180 2.6666331291199 116.46234893799 89 1 delete
09:21:11 55.602677 37.897363 10 185 2.57310795784 96.598449707031 89 1 delete
09:21:08 55.602684 37.897174 5 176 2.2400209903717 120.07297515869 89 1 delete
09:21:03 55.602683 37.896973 5 181 1.7117903232574 73.340934753418 89 1 delete
09:20:54 55.602515 37.896744 10 188 1.3936803340912 29.749813079834 89 1 delete
09:20:50 55.602417 37.896677 5 185 1.4456431865692 4.7633829116821 89 1 delete
09:20:36 55.602139 37.896482 10 177 1.2581449747086 30.253505706787 89 1 delete
09:20:33 55.602083 37.896335 10 179 1.085000872612 89.429077148438 89 1 delete
09:20:29 55.602053 37.896114 10 178 0.89639765024185 86.554252624512 89 1 delete
09:20:20 55.601851 37.896100 10 177 1.9141036272049 350.26800537109 89 1 delete
09:20:17 55.601754 37.896065 10 176 1.9968947172165 14.651844978333 89 1 delete
09:20:11 55.601546 37.895928 5 180 1.7919753789902 23.543785095215 89 1 delete
09:20:07 55.601448 37.895866 5 177 1.7305947542191 30.000873565674 89 1 delete
09:20:01 55.601263 37.895699 10 186 1.3524547815323 45.712245941162 89 1 delete
09:19:57 55.601177 37.895566 5 180 1.0423409938812 47.125183105469 89 1 delete
09:19:53 55.601111 37.895439 10 181 0.80296170711517 25.526346206665 89 1 delete
09:19:46 55.601044 37.895332 10 178 0.24988813698292 336.52822875977 89 1 delete
09:19:34 55.601103 37.895177 10 164 2.4933130741119 101.99520874023 89 1 delete
09:19:31 55.601131 37.894998 10 169 2.5294437408447 95.382499694824 89 1 delete
09:19:28 55.601147 37.894782 10 170 2.5452792644501 116.11379241943 89 1 delete
09:19:24 55.601225 37.894624 10 167 2.6925826072693 133.50491333008 89 1 delete
09:19:21 55.601291 37.894503 5 169 2.8447790145874 135.36068725586 89 1 delete
09:19:18 55.601369 37.894389 10 167 2.7848863601685 149.98692321777 89 1 delete
09:19:15 55.601454 37.894305 10 169 2.8022356033325 118.17304992676 89 1 delete
09:19:11 55.601504 37.894131 10 170 2.9423966407776 112.03447723389 89 1 delete
09:19:08 55.601563 37.893951 10 165 2.7926495075226 123.39466094971 89 1 delete
09:19:06 55.601602 37.893800 5 168 2.7526433467865 109.27913665771 89 1 delete